sensor_id;sensor_type;location;lat;lon;timestamp;P1;durP1;ratioP1;P2;durP2;ratioP2
22652;SDS011;11493;43.344;26.226;2022-08-19T16:41:01;10.90;;;3.47;;
22652;SDS011;11493;43.344;26.226;2022-08-19T16:43:29;10.85;;;3.95;;
22652;SDS011;11493;43.344;26.226;2022-08-19T16:46:00;8.70;;;4.07;;
22652;SDS011;11493;43.344;26.226;2022-08-19T16:48:28;20.50;;;3.90;;
22652;SDS011;11493;43.344;26.226;2022-08-19T16:50:57;13.05;;;4.30;;
22652;SDS011;11493;43.344;26.226;2022-08-19T16:53:26;10.00;;;3.88;;
22652;SDS011;11493;43.344;26.226;2022-08-19T16:55:57;16.85;;;4.00;;
22652;SDS011;11493;43.344;26.226;2022-08-19T16:58:26;9.52;;;4.13;;
22652;SDS011;11493;43.344;26.226;2022-08-19T17:00:56;14.25;;;4.10;;
22652;SDS011;11493;43.344;26.226;2022-08-19T17:03:30;15.20;;;3.80;;
22652;SDS011;11493;43.344;26.226;2022-08-19T17:06:03;21.38;;;5.13;;
22652;SDS011;11493;43.344;26.226;2022-08-19T17:08:47;14.73;;;4.60;;
22652;SDS011;11493;43.344;26.226;2022-08-19T17:11:16;14.82;;;4.32;;
22652;SDS011;11493;43.344;26.226;2022-08-19T17:13:45;10.13;;;4.30;;
22652;SDS011;11493;43.344;26.226;2022-08-19T17:16:14;18.15;;;4.90;;
22652;SDS011;11493;43.344;26.226;2022-08-19T17:18:44;14.75;;;3.75;;
22652;SDS011;11493;43.344;26.226;2022-08-19T17:21:11;16.80;;;4.47;;
22652;SDS011;11493;43.344;26.226;2022-08-19T17:23:39;12.95;;;4.70;;
22652;SDS011;11493;43.344;26.226;2022-08-19T17:26:13;16.83;;;4.85;;
22652;SDS011;11493;43.344;26.226;2022-08-19T17:28:45;9.45;;;5.00;;
22652;SDS011;11493;43.344;26.226;2022-08-19T17:31:16;19.80;;;6.03;;
22652;SDS011;11493;43.344;26.226;2022-08-19T17:33:47;27.88;;;8.57;;
22652;SDS011;11493;43.344;26.226;2022-08-19T17:36:16;11.30;;;5.50;;
22652;SDS011;11493;43.344;26.226;2022-08-19T17:38:44;11.80;;;4.57;;
22652;SDS011;11493;43.344;26.226;2022-08-19T17:41:12;12.48;;;5.72;;
22652;SDS011;11493;43.344;26.226;2022-08-19T17:43:39;9.57;;;4.90;;
22652;SDS011;11493;43.344;26.226;2022-08-19T17:46:10;15.73;;;4.67;;
22652;SDS011;11493;43.344;26.226;2022-08-19T17:48:46;13.43;;;4.75;;
22652;SDS011;11493;43.344;26.226;2022-08-19T17:53:49;19.25;;;4.07;;
22652;SDS011;11493;43.344;26.226;2022-08-19T17:56:19;14.95;;;4.63;;
22652;SDS011;11493;43.344;26.226;2022-08-19T17:58:50;17.63;;;8.57;;
22652;SDS011;11493;43.344;26.226;2022-08-19T18:01:28;26.42;;;10.20;;
22652;SDS011;11493;43.344;26.226;2022-08-19T18:04:16;24.90;;;9.20;;
22652;SDS011;11493;43.344;26.226;2022-08-19T18:06:47;21.33;;;8.88;;
22652;SDS011;11493;43.344;26.226;2022-08-19T18:09:23;29.23;;;10.85;;
22652;SDS011;11493;43.344;26.226;2022-08-19T18:12:09;19.13;;;7.50;;
22652;SDS011;11493;43.344;26.226;2022-08-19T18:14:38;19.38;;;8.90;;
22652;SDS011;11493;43.344;26.226;2022-08-19T18:17:08;20.10;;;7.95;;
22652;SDS011;11493;43.344;26.226;2022-08-19T18:22:19;15.88;;;8.10;;
22652;SDS011;11493;43.344;26.226;2022-08-19T18:24:56;22.70;;;9.80;;
22652;SDS011;11493;43.344;26.226;2022-08-19T18:27:25;21.67;;;9.48;;
22652;SDS011;11493;43.344;26.226;2022-08-19T18:29:53;22.95;;;10.15;;
22652;SDS011;11493;43.344;26.226;2022-08-19T18:32:27;16.10;;;7.95;;
22652;SDS011;11493;43.344;26.226;2022-08-19T18:35:07;19.50;;;6.65;;
22652;SDS011;11493;43.344;26.226;2022-08-19T18:37:56;14.95;;;5.13;;
22652;SDS011;11493;43.344;26.226;2022-08-19T18:43:36;16.10;;;5.53;;
22652;SDS011;11493;43.344;26.226;2022-08-19T18:46:24;14.00;;;5.30;;
22652;SDS011;11493;43.344;26.226;2022-08-19T18:49:13;14.27;;;4.82;;
22652;SDS011;11493;43.344;26.226;2022-08-19T18:51:43;12.35;;;4.90;;
22652;SDS011;11493;43.344;26.226;2022-08-19T18:54:10;13.07;;;5.38;;
22652;SDS011;11493;43.344;26.226;2022-08-19T18:56:38;8.20;;;5.82;;
22652;SDS011;11493;43.344;26.226;2022-08-19T18:59:10;10.95;;;5.43;;
22652;SDS011;11493;43.344;26.226;2022-08-19T19:01:38;17.67;;;5.53;;
22652;SDS011;11493;43.344;26.226;2022-08-19T19:04:12;16.85;;;5.13;;
22652;SDS011;11493;43.344;26.226;2022-08-19T19:06:40;13.13;;;5.43;;
22652;SDS011;11493;43.344;26.226;2022-08-19T19:09:13;8.80;;;4.60;;
22652;SDS011;11493;43.344;26.226;2022-08-19T19:11:45;12.70;;;4.78;;
22652;SDS011;11493;43.344;26.226;2022-08-19T19:14:17;9.65;;;4.97;;
22652;SDS011;11493;43.344;26.226;2022-08-19T19:17:11;17.35;;;4.95;;
22652;SDS011;11493;43.344;26.226;2022-08-19T19:19:40;7.25;;;5.18;;
22652;SDS011;11493;43.344;26.226;2022-08-19T19:22:09;6.95;;;5.00;;
22652;SDS011;11493;43.344;26.226;2022-08-19T19:24:39;6.00;;;4.70;;
22652;SDS011;11493;43.344;26.226;2022-08-19T19:27:11;13.18;;;5.65;;
22652;SDS011;11493;43.344;26.226;2022-08-19T19:29:40;15.30;;;5.35;;
22652;SDS011;11493;43.344;26.226;2022-08-19T19:32:21;12.95;;;5.88;;
22652;SDS011;11493;43.344;26.226;2022-08-19T19:34:51;12.52;;;5.13;;
22652;SDS011;11493;43.344;26.226;2022-08-19T19:37:18;8.07;;;5.18;;
22652;SDS011;11493;43.344;26.226;2022-08-19T19:39:45;14.60;;;5.35;;
22652;SDS011;11493;43.344;26.226;2022-08-19T19:42:18;9.45;;;5.18;;
22652;SDS011;11493;43.344;26.226;2022-08-19T19:44:47;10.38;;;5.15;;
22652;SDS011;11493;43.344;26.226;2022-08-19T19:47:18;9.82;;;5.10;;
22652;SDS011;11493;43.344;26.226;2022-08-19T19:49:50;10.32;;;5.22;;
22652;SDS011;11493;43.344;26.226;2022-08-19T19:52:39;6.97;;;5.78;;
22652;SDS011;11493;43.344;26.226;2022-08-19T19:55:07;8.45;;;5.75;;
22652;SDS011;11493;43.344;26.226;2022-08-19T19:57:35;13.23;;;5.43;;
22652;SDS011;11493;43.344;26.226;2022-08-19T20:00:05;14.82;;;5.65;;
22652;SDS011;11493;43.344;26.226;2022-08-19T20:02:34;9.43;;;5.10;;
22652;SDS011;11493;43.344;26.226;2022-08-19T20:05:02;11.88;;;5.45;;
22652;SDS011;11493;43.344;26.226;2022-08-19T20:07:30;9.77;;;4.85;;
22652;SDS011;11493;43.344;26.226;2022-08-19T20:10:16;7.53;;;5.55;;
22652;SDS011;11493;43.344;26.226;2022-08-19T20:12:43;14.88;;;5.95;;
22652;SDS011;11493;43.344;26.226;2022-08-19T20:15:10;11.43;;;5.78;;
22652;SDS011;11493;43.344;26.226;2022-08-19T20:17:38;10.85;;;5.53;;
22652;SDS011;11493;43.344;26.226;2022-08-19T20:20:08;6.85;;;5.90;;
22652;SDS011;11493;43.344;26.226;2022-08-19T20:22:37;11.82;;;5.65;;
22652;SDS011;11493;43.344;26.226;2022-08-19T20:25:06;9.13;;;5.65;;
22652;SDS011;11493;43.344;26.226;2022-08-19T20:27:35;13.13;;;6.32;;
22652;SDS011;11493;43.344;26.226;2022-08-19T20:30:07;18.60;;;5.60;;
22652;SDS011;11493;43.344;26.226;2022-08-19T20:32:45;8.15;;;5.90;;
22652;SDS011;11493;43.344;26.226;2022-08-19T20:35:13;12.10;;;5.70;;
22652;SDS011;11493;43.344;26.226;2022-08-19T20:40:12;13.50;;;5.35;;
22652;SDS011;11493;43.344;26.226;2022-08-19T20:42:40;9.27;;;6.00;;
22652;SDS011;11493;43.344;26.226;2022-08-19T20:45:09;12.25;;;6.20;;
22652;SDS011;11493;43.344;26.226;2022-08-19T20:47:59;10.35;;;6.15;;
22652;SDS011;11493;43.344;26.226;2022-08-19T20:50:30;12.18;;;5.97;;
22652;SDS011;11493;43.344;26.226;2022-08-19T20:53:07;13.65;;;5.85;;
22652;SDS011;11493;43.344;26.226;2022-08-19T20:55:38;9.77;;;5.90;;
22652;SDS011;11493;43.344;26.226;2022-08-19T20:58:08;11.98;;;5.63;;
22652;SDS011;11493;43.344;26.226;2022-08-19T21:00:35;15.85;;;12.18;;
22652;SDS011;11493;43.344;26.226;2022-08-19T21:03:03;17.08;;;11.90;;
22652;SDS011;11493;43.344;26.226;2022-08-19T21:05:30;18.10;;;11.05;;
22652;SDS011;11493;43.344;26.226;2022-08-19T21:07:58;11.48;;;8.65;;
22652;SDS011;11493;43.344;26.226;2022-08-19T21:10:25;14.85;;;7.80;;
22652;SDS011;11493;43.344;26.226;2022-08-19T21:12:53;12.07;;;7.22;;
22652;SDS011;11493;43.344;26.226;2022-08-19T21:15:21;9.63;;;6.78;;
22652;SDS011;11493;43.344;26.226;2022-08-19T21:17:50;12.68;;;6.75;;
22652;SDS011;11493;43.344;26.226;2022-08-19T21:20:17;9.65;;;6.25;;
22652;SDS011;11493;43.344;26.226;2022-08-19T21:22:45;12.57;;;6.70;;
22652;SDS011;11493;43.344;26.226;2022-08-19T21:25:12;10.00;;;5.60;;
22652;SDS011;11493;43.344;26.226;2022-08-19T21:27:41;14.90;;;6.32;;
22652;SDS011;11493;43.344;26.226;2022-08-19T21:30:08;9.70;;;5.93;;
22652;SDS011;11493;43.344;26.226;2022-08-19T21:32:36;13.10;;;5.15;;
22652;SDS011;11493;43.344;26.226;2022-08-19T21:35:03;18.88;;;6.50;;
22652;SDS011;11493;43.344;26.226;2022-08-19T21:37:31;7.57;;;6.18;;
22652;SDS011;11493;43.344;26.226;2022-08-19T21:40:02;6.50;;;5.80;;
22652;SDS011;11493;43.344;26.226;2022-08-19T21:42:30;10.75;;;5.93;;
22652;SDS011;11493;43.344;26.226;2022-08-19T21:44:57;14.05;;;5.95;;
22652;SDS011;11493;43.344;26.226;2022-08-19T21:47:25;10.82;;;5.95;;
22652;SDS011;11493;43.344;26.226;2022-08-19T21:49:52;6.95;;;5.50;;
22652;SDS011;11493;43.344;26.226;2022-08-19T21:52:24;17.60;;;6.28;;
22652;SDS011;11493;43.344;26.226;2022-08-19T21:54:53;8.38;;;5.57;;
22652;SDS011;11493;43.344;26.226;2022-08-19T21:57:21;12.90;;;6.25;;
22652;SDS011;11493;43.344;26.226;2022-08-19T21:59:50;12.27;;;5.35;;
22652;SDS011;11493;43.344;26.226;2022-08-19T22:02:18;15.25;;;6.00;;
22652;SDS011;11493;43.344;26.226;2022-08-19T22:04:49;11.50;;;6.25;;
22652;SDS011;11493;43.344;26.226;2022-08-19T22:07:18;13.10;;;6.43;;
22652;SDS011;11493;43.344;26.226;2022-08-19T22:09:47;10.00;;;6.18;;
22652;SDS011;11493;43.344;26.226;2022-08-19T22:12:29;6.65;;;5.43;;
22652;SDS011;11493;43.344;26.226;2022-08-19T22:14:58;11.55;;;6.75;;
22652;SDS011;11493;43.344;26.226;2022-08-19T22:17:29;8.75;;;5.85;;
22652;SDS011;11493;43.344;26.226;2022-08-19T22:19:57;9.27;;;5.78;;
22652;SDS011;11493;43.344;26.226;2022-08-19T22:22:26;14.25;;;6.10;;
22652;SDS011;11493;43.344;26.226;2022-08-19T22:25:00;15.60;;;6.10;;
22652;SDS011;11493;43.344;26.226;2022-08-19T22:27:31;7.22;;;5.95;;
22652;SDS011;11493;43.344;26.226;2022-08-19T22:29:58;13.18;;;6.25;;
22652;SDS011;11493;43.344;26.226;2022-08-19T22:32:25;9.35;;;5.72;;
22652;SDS011;11493;43.344;26.226;2022-08-19T22:34:56;10.20;;;6.43;;
22652;SDS011;11493;43.344;26.226;2022-08-19T22:37:25;7.60;;;5.97;;
22652;SDS011;11493;43.344;26.226;2022-08-19T22:39:53;23.75;;;6.97;;
22652;SDS011;11493;43.344;26.226;2022-08-19T22:42:20;10.00;;;5.75;;
22652;SDS011;11493;43.344;26.226;2022-08-19T22:44:48;9.73;;;6.00;;
22652;SDS011;11493;43.344;26.226;2022-08-19T22:47:16;12.77;;;5.70;;
22652;SDS011;11493;43.344;26.226;2022-08-19T22:49:43;8.48;;;5.55;;
22652;SDS011;11493;43.344;26.226;2022-08-19T22:52:11;14.10;;;6.53;;
22652;SDS011;11493;43.344;26.226;2022-08-19T22:54:47;8.45;;;5.72;;
22652;SDS011;11493;43.344;26.226;2022-08-19T22:57:17;10.38;;;6.93;;
22652;SDS011;11493;43.344;26.226;2022-08-19T22:59:46;11.65;;;6.40;;
22652;SDS011;11493;43.344;26.226;2022-08-19T23:02:18;8.43;;;7.57;;
22652;SDS011;11493;43.344;26.226;2022-08-19T23:04:50;10.38;;;5.72;;
22652;SDS011;11493;43.344;26.226;2022-08-19T23:07:18;12.32;;;6.45;;
22652;SDS011;11493;43.344;26.226;2022-08-19T23:09:49;9.38;;;6.90;;
22652;SDS011;11493;43.344;26.226;2022-08-19T23:12:24;10.32;;;6.72;;
22652;SDS011;11493;43.344;26.226;2022-08-19T23:14:53;10.02;;;5.93;;
22652;SDS011;11493;43.344;26.226;2022-08-19T23:17:21;10.50;;;6.25;;
22652;SDS011;11493;43.344;26.226;2022-08-19T23:19:49;7.13;;;6.53;;
22652;SDS011;11493;43.344;26.226;2022-08-19T23:22:16;8.70;;;6.30;;
22652;SDS011;11493;43.344;26.226;2022-08-19T23:24:44;11.20;;;6.13;;
22652;SDS011;11493;43.344;26.226;2022-08-19T23:27:11;8.35;;;6.15;;
22652;SDS011;11493;43.344;26.226;2022-08-19T23:29:57;10.23;;;6.35;;
22652;SDS011;11493;43.344;26.226;2022-08-19T23:32:43;11.55;;;6.43;;
22652;SDS011;11493;43.344;26.226;2022-08-19T23:35:11;10.93;;;6.65;;
22652;SDS011;11493;43.344;26.226;2022-08-19T23:37:39;12.32;;;7.03;;
22652;SDS011;11493;43.344;26.226;2022-08-19T23:40:06;11.32;;;6.43;;
22652;SDS011;11493;43.344;26.226;2022-08-19T23:42:38;14.57;;;5.75;;
22652;SDS011;11493;43.344;26.226;2022-08-19T23:45:07;13.95;;;7.15;;
22652;SDS011;11493;43.344;26.226;2022-08-19T23:47:36;8.27;;;6.07;;
22652;SDS011;11493;43.344;26.226;2022-08-19T23:50:07;8.68;;;6.40;;
22652;SDS011;11493;43.344;26.226;2022-08-19T23:52:46;8.68;;;6.50;;
22652;SDS011;11493;43.344;26.226;2022-08-19T23:55:20;8.32;;;7.25;;
22652;SDS011;11493;43.344;26.226;2022-08-19T23:57:50;9.85;;;6.90;;
